createdAt,value
2023-01-19T00:00:00.296Z,100187.78
2023-01-19T00:02:26.718Z,100204.59
2023-01-19T00:04:53.189Z,100199.56
2023-01-19T00:07:19.565Z,100197.84
2023-01-19T00:09:46.100Z,100202.88
2023-01-19T00:12:12.461Z,100197.81
2023-01-19T00:14:38.935Z,100193.63
2023-01-19T00:17:05.426Z,100195.31
2023-01-19T00:19:32.064Z,100181.88
2023-01-19T00:21:58.425Z,100183.53
2023-01-19T00:24:24.826Z,100193.63
2023-01-19T00:26:51.318Z,100203.72
2023-01-19T00:29:17.765Z,100210.44
2023-01-19T00:31:44.629Z,100208.78
2023-01-19T00:34:11.196Z,100204.59
2023-01-19T00:36:37.636Z,100207.16
2023-01-19T00:39:04.249Z,100212.25
2023-01-19T00:41:49.414Z,100212.25
2023-01-19T00:44:15.785Z,100213.09
2023-01-19T00:46:42.221Z,100208.91
2023-01-19T00:49:09.084Z,100205.53
2023-01-19T00:51:35.450Z,100205.53
2023-01-19T00:54:04.936Z,100187.00
2023-01-19T00:56:32.255Z,100201.28
2023-01-19T00:58:58.647Z,100196.25
2023-01-19T01:01:45.283Z,100192.00
2023-01-19T01:04:13.667Z,100193.69
2023-01-19T01:06:40.335Z,100197.06
2023-01-19T01:09:11.874Z,100190.28
2023-01-19T01:11:42.553Z,100183.56
2023-01-19T01:14:11.465Z,100184.41
2023-01-19T01:16:38.310Z,100188.63
2023-01-19T01:19:04.914Z,100194.53
2023-01-19T01:21:31.628Z,100196.22
2023-01-19T01:23:58.043Z,100184.47
2023-01-19T01:26:26.970Z,100194.59
2023-01-19T01:28:53.505Z,100195.44
2023-01-19T01:31:20.078Z,100192.94
2023-01-19T01:33:46.583Z,100203.88
2023-01-19T01:36:13.000Z,100206.41
2023-01-19T01:38:40.804Z,100206.41
2023-01-19T01:41:08.223Z,100209.78
2023-01-19T01:43:54.040Z,100201.38
2023-01-19T01:46:20.752Z,100206.41
2023-01-19T01:48:57.054Z,100202.19
2023-01-19T01:51:37.458Z,100207.22
2023-01-19T01:54:18.932Z,100205.53
2023-01-19T01:56:48.137Z,100208.88
2023-01-19T01:59:25.655Z,100197.09
2023-01-19T02:02:12.255Z,100198.75
2023-01-19T02:04:43.289Z,100208.84
2023-01-19T02:07:32.750Z,100207.13
2023-01-19T02:10:17.543Z,100206.31
2023-01-19T02:13:03.153Z,100207.97
2023-01-19T02:15:29.820Z,100218.06
2023-01-19T02:17:58.404Z,100214.69
2023-01-19T02:20:28.417Z,100221.38
2023-01-19T02:22:56.995Z,100223.06
2023-01-19T02:25:25.176Z,100214.66
2023-01-19T02:27:52.825Z,100217.16
2023-01-19T02:30:19.752Z,100217.13
2023-01-19T02:32:46.301Z,100224.69
2023-01-19T02:35:12.981Z,100201.06
2023-01-19T02:37:41.381Z,100235.53
2023-01-19T02:40:15.211Z,100243.94
2023-01-19T02:42:54.052Z,100250.63
2023-01-19T02:45:22.609Z,100248.94
2023-01-19T02:47:51.437Z,100246.38
2023-01-19T02:50:37.403Z,100254.84
2023-01-19T02:53:21.237Z,100261.56
2023-01-19T02:55:56.963Z,100261.59
2023-01-19T02:58:34.305Z,100266.63
2023-01-19T03:01:16.527Z,100270.03
2023-01-19T03:03:56.011Z,100273.38
2023-01-19T03:06:42.986Z,100266.63
2023-01-19T03:09:29.439Z,100266.63
2023-01-19T03:12:14.131Z,100275.03
2023-01-19T03:14:46.156Z,100279.25
2023-01-19T03:17:14.938Z,100286.00
2023-01-19T03:19:43.482Z,100264.94
2023-01-19T03:22:17.616Z,100268.31
2023-01-19T03:24:47.764Z,100265.78
2023-01-19T03:27:40.770Z,100274.19
2023-01-19T03:30:18.593Z,100286.84
2023-01-19T03:32:50.660Z,100285.16
2023-01-19T03:35:19.576Z,100291.88
2023-01-19T03:37:50.593Z,100289.34
2023-01-19T03:40:17.398Z,100289.38
2023-01-19T03:42:44.914Z,100282.66
2023-01-19T03:45:13.085Z,100286.88
2023-01-19T03:47:40.046Z,100286.03
2023-01-19T03:50:13.769Z,100296.16
2023-01-19T03:52:40.118Z,100296.16
2023-01-19T03:55:07.050Z,100304.59
2023-01-19T03:57:33.467Z,100297.88
2023-01-19T03:59:59.988Z,100310.53
2023-01-19T04:02:26.492Z,100324.00
2023-01-19T04:04:52.900Z,100328.22
2023-01-19T04:07:19.391Z,100324.88
2023-01-19T04:09:45.953Z,100321.50
2023-01-19T04:12:12.306Z,100327.41
2023-01-19T04:14:38.668Z,100324.06
2023-01-19T04:17:05.042Z,100328.31
2023-01-19T04:19:31.737Z,100324.09
2023-01-19T04:21:58.194Z,100330.00
2023-01-19T04:24:24.597Z,100320.75
2023-01-19T04:26:53.227Z,100314.84
2023-01-19T04:29:19.711Z,100314.00
2023-01-19T04:31:46.062Z,100320.75
2023-01-19T04:34:12.459Z,100323.28
2023-01-19T04:36:38.821Z,100327.50
2023-01-19T04:39:05.189Z,100335.91
2023-01-19T04:41:31.787Z,100335.91
2023-01-19T04:43:58.211Z,100333.38
2023-01-19T04:46:24.816Z,100342.66
2023-01-19T04:48:54.034Z,100335.06
2023-01-19T04:51:20.660Z,100343.50
2023-01-19T04:53:47.062Z,100341.78
2023-01-19T04:56:13.507Z,100336.75
2023-01-19T04:58:40.105Z,100348.50
2023-01-19T05:01:09.708Z,100357.78
2023-01-19T05:03:36.200Z,100359.47
2023-01-19T05:06:02.649Z,100370.38
2023-01-19T05:08:29.174Z,100367.88
2023-01-19T05:10:57.569Z,100377.94
2023-01-19T05:13:24.080Z,100382.16
2023-01-19T05:15:50.604Z,100380.50
2023-01-19T05:18:17.294Z,100374.59
2023-01-19T05:20:43.860Z,100383.00
2023-01-19T05:23:10.385Z,100387.22
2023-01-19T05:25:36.826Z,100387.22
2023-01-19T05:28:03.953Z,100377.97
2023-01-19T05:30:30.517Z,100380.47
2023-01-19T05:32:56.909Z,100381.31
2023-01-19T05:35:35.317Z,100375.41
2023-01-19T05:38:02.460Z,100378.78
2023-01-19T05:40:28.933Z,100386.34
2023-01-19T05:42:55.357Z,100391.41
2023-01-19T05:45:21.907Z,100394.78
2023-01-19T05:47:48.250Z,100399.81
2023-01-19T05:50:14.909Z,100421.69
2023-01-19T05:52:41.432Z,100411.59
2023-01-19T05:55:08.310Z,100413.28
2023-01-19T05:57:34.964Z,100414.97
2023-01-19T06:00:01.438Z,100417.47
2023-01-19T06:02:30.076Z,100417.47
2023-01-19T06:04:56.902Z,100420.84
2023-01-19T06:07:25.118Z,100421.72
2023-01-19T06:09:52.024Z,100416.66
2023-01-19T06:12:18.568Z,100419.19
2023-01-19T06:14:45.246Z,100425.06
2023-01-19T06:17:11.605Z,100430.13
2023-01-19T06:19:38.006Z,100435.16
2023-01-19T06:22:04.380Z,100441.91
2023-01-19T06:24:30.732Z,100447.78
2023-01-19T06:26:57.199Z,100454.50
2023-01-19T06:29:23.923Z,100449.47
2023-01-19T06:31:50.487Z,100458.72
2023-01-19T06:34:16.879Z,100463.78
2023-01-19T06:36:43.289Z,100472.19
2023-01-19T06:39:10.539Z,100478.91
2023-01-19T06:41:36.903Z,100479.75
2023-01-19T06:44:03.425Z,100488.19
2023-01-19T06:46:32.216Z,100483.97
2023-01-19T06:48:58.577Z,100483.97
2023-01-19T06:51:25.520Z,100483.97
2023-01-19T06:53:51.966Z,100492.38
2023-01-19T06:56:18.604Z,100492.41
2023-01-19T06:58:47.633Z,100494.06
2023-01-19T07:01:14.445Z,100494.06
2023-01-19T07:03:40.892Z,100494.09
2023-01-19T07:06:07.515Z,100504.16
2023-01-19T07:08:35.392Z,100503.31
2023-01-19T07:11:25.180Z,100515.06
2023-01-19T07:13:54.441Z,100510.03
2023-01-19T07:16:20.934Z,100515.88
2023-01-19T07:18:48.453Z,100520.09
2023-01-19T07:21:15.372Z,100518.41
2023-01-19T07:23:43.237Z,100522.59
2023-01-19T07:26:10.244Z,100536.88
2023-01-19T07:28:37.254Z,100537.72
2023-01-19T07:31:04.032Z,100546.94
2023-01-19T07:33:30.639Z,100546.91
2023-01-19T07:35:57.329Z,100558.69
2023-01-19T07:38:23.747Z,100553.66
2023-01-19T07:40:50.282Z,100565.44
2023-01-19T07:43:17.038Z,100560.38
2023-01-19T07:45:44.876Z,100565.44
2023-01-19T07:48:11.501Z,100562.91
2023-01-19T07:50:38.055Z,100575.53
2023-01-19T07:53:05.925Z,100578.91
2023-01-19T07:55:32.636Z,100581.44
2023-01-19T07:57:59.071Z,100586.47
2023-01-19T08:00:25.877Z,100585.66
2023-01-19T08:02:53.766Z,100594.03
2023-01-19T08:05:20.915Z,100591.53
2023-01-19T08:07:48.289Z,100606.63
2023-01-19T08:10:16.304Z,100605.78
2023-01-19T08:12:42.992Z,100613.34
2023-01-19T08:15:10.562Z,100608.25
2023-01-19T08:17:37.086Z,100618.34
2023-01-19T08:20:03.982Z,100616.66
2023-01-19T08:22:30.471Z,100622.56
2023-01-19T08:24:56.833Z,100620.88
2023-01-19T08:27:23.229Z,100627.56
2023-01-19T08:29:49.777Z,100635.94
2023-01-19T08:32:16.481Z,100640.13
2023-01-19T08:34:42.999Z,100635.97
2023-01-19T08:37:09.513Z,100636.81
2023-01-19T08:39:36.037Z,100647.78
2023-01-19T08:42:02.598Z,100649.44
2023-01-19T08:44:28.991Z,100646.09
2023-01-19T08:46:55.418Z,100656.22
2023-01-19T08:49:21.992Z,100654.53
2023-01-19T08:51:48.990Z,100645.38
2023-01-19T08:54:18.523Z,100652.13
2023-01-19T08:56:45.161Z,100659.72
2023-01-19T08:59:13.068Z,100664.81
2023-01-19T09:01:41.303Z,100664.84
2023-01-19T09:04:07.895Z,100669.09
2023-01-19T09:06:34.425Z,100669.13
2023-01-19T09:09:00.980Z,100670.00
2023-01-19T09:11:27.677Z,100671.72
2023-01-19T09:13:54.209Z,100665.84
2023-01-19T09:16:20.788Z,100662.47
2023-01-19T09:18:47.203Z,100665.03
2023-01-19T09:21:15.039Z,100670.09
2023-01-19T09:23:41.473Z,100668.41
2023-01-19T09:26:07.832Z,100676.00
2023-01-19T09:28:34.619Z,100679.34
2023-01-19T09:31:06.242Z,100679.34
2023-01-19T09:33:33.133Z,100681.03
2023-01-19T09:35:59.679Z,100683.56
2023-01-19T09:38:26.953Z,100680.22
2023-01-19T09:40:55.954Z,100687.78
2023-01-19T09:43:49.518Z,100683.59
2023-01-19T09:46:29.948Z,100682.72
2023-01-19T09:48:59.671Z,100688.63
2023-01-19T09:51:28.666Z,100693.69
2023-01-19T09:54:16.692Z,100697.06
2023-01-19T09:56:45.217Z,100698.69
2023-01-19T09:59:20.276Z,100699.53
2023-01-19T10:02:14.527Z,100712.19
2023-01-19T10:05:05.027Z,100706.25
2023-01-19T10:08:03.910Z,100707.94
2023-01-19T10:10:40.323Z,100712.97
2023-01-19T10:13:29.107Z,100715.47
2023-01-19T10:16:20.350Z,100713.78
2023-01-19T10:18:54.808Z,100716.25
2023-01-19T10:21:33.491Z,100719.66
2023-01-19T10:24:23.140Z,100717.94
2023-01-19T10:26:56.812Z,100720.44
2023-01-19T10:29:38.490Z,100733.91
2023-01-19T10:32:19.689Z,100727.13
2023-01-19T10:34:47.589Z,100723.69
2023-01-19T10:37:18.307Z,100721.13
2023-01-19T10:39:54.164Z,100724.47
2023-01-19T10:42:20.813Z,100717.69
2023-01-19T10:44:47.249Z,100715.16
2023-01-19T10:47:19.026Z,100715.09
2023-01-19T10:49:47.063Z,100726.03
2023-01-19T10:52:33.950Z,100723.47
2023-01-19T10:55:03.062Z,100725.97
2023-01-19T10:57:39.426Z,100721.75
2023-01-19T11:00:27.111Z,100728.47
2023-01-19T11:02:53.923Z,100718.31
2023-01-19T11:05:25.893Z,100727.59
2023-01-19T11:07:52.298Z,100723.31
2023-01-19T11:10:24.803Z,100735.13
2023-01-19T11:13:04.036Z,100730.00
2023-01-19T11:15:43.253Z,100724.84
2023-01-19T11:18:42.790Z,100724.84
2023-01-19T11:21:11.562Z,100723.94
2023-01-19T11:23:46.334Z,100724.84
2023-01-19T11:26:24.210Z,100729.13
2023-01-19T11:28:54.742Z,100732.63
2023-01-19T11:31:27.470Z,100726.78
2023-01-19T11:33:57.168Z,100737.03
2023-01-19T11:36:25.051Z,100743.78
2023-01-19T11:38:56.859Z,100742.91
2023-01-19T11:41:28.700Z,100742.09
2023-01-19T11:43:58.857Z,100742.94
2023-01-19T11:46:32.925Z,100733.69
2023-01-19T11:49:04.658Z,100737.94
2023-01-19T11:51:39.019Z,100736.28
2023-01-19T11:54:21.123Z,100733.75
2023-01-19T11:56:49.142Z,100742.28
2023-01-19T11:59:15.644Z,100741.47
2023-01-19T12:01:50.737Z,100743.16
2023-01-19T12:04:24.725Z,100746.53
2023-01-19T12:06:54.764Z,100749.03
2023-01-19T12:09:21.374Z,100747.25
2023-01-19T12:11:58.283Z,100744.72
2023-01-19T12:14:47.620Z,100744.78
2023-01-19T12:17:19.710Z,100741.44
2023-01-19T12:19:55.255Z,100750.81
2023-01-19T12:22:23.797Z,100745.78
2023-01-19T12:25:06.658Z,100753.44
2023-01-19T12:27:42.208Z,100748.41
2023-01-19T12:30:29.308Z,100752.63
2023-01-19T12:33:21.241Z,100750.97
2023-01-19T12:36:04.485Z,100745.91
2023-01-19T12:38:50.105Z,100755.22
2023-01-19T12:41:27.576Z,100748.44
2023-01-19T12:44:12.415Z,100752.66
2023-01-19T12:46:42.132Z,100753.50
2023-01-19T12:49:29.203Z,100751.81
2023-01-19T12:52:11.587Z,100754.34
2023-01-19T12:54:43.597Z,100753.50
2023-01-19T12:57:37.934Z,100758.50
2023-01-19T13:00:27.268Z,100749.94
2023-01-19T13:03:20.446Z,100751.56
2023-01-19T13:05:53.280Z,100759.16
2023-01-19T13:08:22.622Z,100745.63
2023-01-19T13:11:09.540Z,100761.63
2023-01-19T13:13:37.368Z,100757.44
2023-01-19T13:16:18.566Z,100756.53
2023-01-19T13:18:49.249Z,100753.06
2023-01-19T13:21:30.926Z,100754.66
2023-01-19T13:24:05.422Z,100755.47
2023-01-19T13:26:35.600Z,100763.06
2023-01-19T13:29:14.014Z,100758.78
2023-01-19T13:31:42.719Z,100755.34
2023-01-19T13:34:14.473Z,100768.88
2023-01-19T13:36:44.912Z,100765.47
2023-01-19T13:39:18.812Z,100771.38
2023-01-19T13:41:47.347Z,100763.00
2023-01-19T13:44:23.898Z,100775.78
2023-01-19T13:46:51.947Z,100773.28
2023-01-19T13:49:26.016Z,100783.50
2023-01-19T13:52:24.852Z,100778.50
2023-01-19T13:55:02.878Z,100780.22
2023-01-19T13:57:32.017Z,100773.47
2023-01-19T14:00:07.167Z,100792.06
2023-01-19T14:02:34.288Z,100788.72
2023-01-19T14:05:22.603Z,100783.69
2023-01-19T14:08:03.404Z,100792.16
2023-01-19T14:10:31.274Z,100802.34
2023-01-19T14:13:02.390Z,100802.38
2023-01-19T14:15:29.624Z,100805.72
2023-01-19T14:18:24.591Z,100800.69
2023-01-19T14:21:03.267Z,100799.84
2023-01-19T14:23:49.857Z,100806.63
2023-01-19T14:26:56.163Z,100807.47
2023-01-19T14:29:26.658Z,100801.56
2023-01-19T14:32:11.947Z,100807.47
2023-01-19T14:34:45.796Z,100806.63
2023-01-19T14:37:21.188Z,100808.34
2023-01-19T14:39:55.950Z,100818.47
2023-01-19T14:42:37.559Z,100811.72
2023-01-19T14:45:16.056Z,100815.09
2023-01-19T14:47:45.703Z,100815.91
2023-01-19T14:50:20.584Z,100814.25
2023-01-19T14:52:54.493Z,100813.41
2023-01-19T14:55:25.529Z,100819.31
2023-01-19T14:57:51.960Z,100819.31
2023-01-19T15:00:20.040Z,100807.50
2023-01-19T15:02:47.361Z,100821.84
2023-01-19T15:05:28.972Z,100818.47
2023-01-19T15:07:55.421Z,100814.25
2023-01-19T15:10:23.882Z,100816.81
2023-01-19T15:12:52.418Z,100818.50
2023-01-19T15:15:25.677Z,100817.66
2023-01-19T15:17:54.121Z,100816.81
2023-01-19T15:20:23.023Z,100817.66
2023-01-19T15:22:49.868Z,100823.56
2023-01-19T15:25:19.245Z,100827.78
2023-01-19T15:27:47.084Z,100830.28
2023-01-19T15:30:21.033Z,100836.19
2023-01-19T15:32:47.656Z,100837.91
2023-01-19T15:35:19.112Z,100851.38
2023-01-19T15:37:45.894Z,100848.84
2023-01-19T15:40:13.699Z,100851.38
2023-01-19T15:42:40.143Z,100853.91
2023-01-19T15:45:41.554Z,100857.25
2023-01-19T15:48:10.329Z,100858.06
2023-01-19T15:50:39.686Z,100858.88
2023-01-19T15:53:06.844Z,100861.38
2023-01-19T15:55:33.439Z,100863.06
2023-01-19T15:58:03.366Z,100864.72
2023-01-19T16:00:34.561Z,100873.09
2023-01-19T16:03:01.751Z,100867.16
2023-01-19T16:05:41.929Z,100872.16
2023-01-19T16:08:10.222Z,100872.13
2023-01-19T16:10:36.711Z,100872.06
2023-01-19T16:13:04.154Z,100871.97
2023-01-19T16:15:30.674Z,100875.25
2023-01-19T16:17:57.172Z,100881.88
2023-01-19T16:20:23.795Z,100880.97
2023-01-19T16:22:50.222Z,100880.06
2023-01-19T16:25:16.693Z,100893.41
2023-01-19T16:27:43.108Z,100893.31
2023-01-19T16:30:12.461Z,100899.13
2023-01-19T16:32:39.104Z,100901.56
2023-01-19T16:35:06.077Z,100904.88
2023-01-19T16:37:32.576Z,100905.69
2023-01-19T16:39:59.217Z,100908.16
2023-01-19T16:42:25.648Z,100913.16
2023-01-19T16:44:52.150Z,100915.59
2023-01-19T16:47:18.660Z,100918.97
2023-01-19T16:49:45.291Z,100926.53
2023-01-19T16:52:11.928Z,100914.66
2023-01-19T16:54:42.771Z,100920.47
2023-01-19T16:57:09.937Z,100921.19
2023-01-19T16:59:37.127Z,100920.22
2023-01-19T17:02:03.566Z,100929.41
2023-01-19T17:04:30.088Z,100931.94
2023-01-19T17:06:56.575Z,100934.34
2023-01-19T17:09:23.029Z,100940.19
2023-01-19T17:11:49.506Z,100945.22
2023-01-19T17:14:20.312Z,100938.41
2023-01-19T17:16:47.519Z,100941.72
2023-01-19T17:19:17.306Z,100947.47
2023-01-19T17:21:48.853Z,100951.53
2023-01-19T17:24:16.195Z,100956.44
2023-01-19T17:26:45.871Z,100953.00
2023-01-19T17:29:12.779Z,100950.38
2023-01-19T17:31:39.290Z,100961.16
2023-01-19T17:34:05.751Z,100964.50
2023-01-19T17:36:32.999Z,100967.03
2023-01-19T17:39:03.902Z,100958.66
2023-01-19T17:41:33.283Z,100970.31
2023-01-19T17:44:01.099Z,100964.31
2023-01-19T17:46:29.198Z,100970.13
2023-01-19T17:48:58.060Z,100972.53
2023-01-19T17:51:25.775Z,100962.44
2023-01-19T17:53:53.264Z,100964.88
2023-01-19T17:56:23.175Z,100959.78
2023-01-19T17:58:50.038Z,100964.78
2023-01-19T18:01:19.257Z,100969.84
2023-01-19T18:03:46.657Z,100974.84
2023-01-19T18:06:13.555Z,100974.00
2023-01-19T18:08:41.999Z,100979.00
2023-01-19T18:11:09.695Z,100983.25
2023-01-19T18:13:37.249Z,100981.63
2023-01-19T18:16:13.688Z,100981.69
2023-01-19T18:18:40.705Z,100980.06
2023-01-19T18:21:10.053Z,100991.06
2023-01-19T18:23:36.798Z,100986.03
2023-01-19T18:26:07.602Z,100986.09
2023-01-19T18:28:34.810Z,100993.72
2023-01-19T18:31:01.851Z,100998.81
2023-01-19T18:33:29.190Z,101006.41
2023-01-19T18:35:55.581Z,100998.06
2023-01-19T18:38:22.349Z,100996.47
2023-01-19T18:40:48.913Z,101004.97
2023-01-19T18:43:15.380Z,101005.03
2023-01-19T18:45:42.066Z,101001.72
2023-01-19T18:48:09.443Z,101003.47
2023-01-19T18:50:37.654Z,101003.50
2023-01-19T18:53:04.095Z,101007.75
2023-01-19T18:55:30.566Z,100995.19
2023-01-19T18:57:57.004Z,100996.88
2023-01-19T19:00:23.406Z,101002.81
2023-01-19T19:02:49.811Z,101010.38
2023-01-19T19:05:16.326Z,101002.03
2023-01-19T19:07:42.706Z,101012.13
2023-01-19T19:10:09.875Z,101012.97
2023-01-19T19:12:36.305Z,101012.97
2023-01-19T19:15:02.856Z,101018.09
2023-01-19T19:17:29.243Z,101026.50
2023-01-19T19:19:55.739Z,101032.44
2023-01-19T19:22:24.160Z,101040.09
2023-01-19T19:24:51.811Z,101040.19
2023-01-19T19:27:18.184Z,101035.22
2023-01-19T19:29:48.767Z,101037.75
2023-01-19T19:32:20.182Z,101042.84
2023-01-19T19:34:50.107Z,101046.28
2023-01-19T19:37:16.812Z,101051.38
2023-01-19T19:39:43.425Z,101054.75
2023-01-19T19:42:09.795Z,101053.97
2023-01-19T19:44:36.352Z,101053.16
2023-01-19T19:47:02.743Z,101059.09
2023-01-19T19:49:29.333Z,101063.31
2023-01-19T19:51:56.055Z,101063.34
2023-01-19T19:54:22.455Z,101073.44
2023-01-19T19:56:51.898Z,101081.03
2023-01-19T19:59:18.382Z,101083.63
2023-01-19T20:01:47.063Z,101089.56
2023-01-19T20:04:14.102Z,101077.78
2023-01-19T20:06:44.427Z,101079.41
2023-01-19T20:09:15.680Z,101079.38
2023-01-19T20:11:46.682Z,101085.25
2023-01-19T20:14:14.552Z,101090.31
2023-01-19T20:16:41.091Z,101089.47
2023-01-19T20:19:07.831Z,101092.00
2023-01-19T20:21:38.878Z,101095.38
2023-01-19T20:24:08.247Z,101097.88
2023-01-19T20:26:38.842Z,101097.88
2023-01-19T20:29:10.205Z,101110.47
2023-01-19T20:31:43.482Z,101113.84
2023-01-19T20:34:12.109Z,101123.94
2023-01-19T20:36:38.685Z,101129.78
2023-01-19T20:39:10.165Z,101137.28
2023-01-19T20:41:46.178Z,101131.38
2023-01-19T20:44:16.012Z,101138.84
2023-01-19T20:46:43.574Z,101133.78
2023-01-19T20:49:10.251Z,101138.84
2023-01-19T20:51:39.593Z,101150.66
2023-01-19T20:54:06.076Z,101154.03
2023-01-19T20:56:32.528Z,101155.78
2023-01-19T20:58:59.595Z,101156.63
2023-01-19T21:01:26.336Z,101162.47
2023-01-19T21:03:52.921Z,101152.41
2023-01-19T21:06:21.000Z,101147.34
2023-01-19T21:08:49.994Z,101143.16
2023-01-19T21:11:20.694Z,101141.47
2023-01-19T21:13:48.391Z,101145.63
2023-01-19T21:16:15.509Z,101142.25
2023-01-19T21:18:41.911Z,101133.78
2023-01-19T21:21:14.949Z,101137.09
2023-01-19T21:23:47.657Z,101148.06
2023-01-19T21:26:14.601Z,101149.72
2023-01-19T21:28:41.084Z,101153.03
2023-01-19T21:31:09.788Z,101155.50
2023-01-19T21:33:36.279Z,101158.00
2023-01-19T21:36:02.959Z,101168.06
2023-01-19T21:38:29.995Z,101163.81
2023-01-19T21:40:57.827Z,101168.78
2023-01-19T21:43:26.408Z,101167.03
2023-01-19T21:45:53.010Z,101158.56
2023-01-19T21:48:19.864Z,101168.56
2023-01-19T21:50:46.511Z,101175.22
2023-01-19T21:53:13.026Z,101171.00
2023-01-19T21:55:44.654Z,101175.09
2023-01-19T21:58:11.032Z,101180.97
2023-01-19T22:00:37.637Z,101184.22
2023-01-19T22:03:04.831Z,101185.00
2023-01-19T22:05:36.864Z,101186.66
2023-01-19T22:08:04.221Z,101188.25
2023-01-19T22:10:30.751Z,101184.81
2023-01-19T22:12:57.126Z,101181.44
2023-01-19T22:15:23.548Z,101197.34
2023-01-19T22:17:49.999Z,101199.84
2023-01-19T22:20:16.883Z,101209.91
2023-01-19T22:22:43.439Z,101218.28
2023-01-19T22:25:10.232Z,101218.31
2023-01-19T22:27:37.436Z,101224.25
2023-01-19T22:30:04.354Z,101224.25
2023-01-19T22:32:31.298Z,101223.38
2023-01-19T22:34:57.742Z,101225.09
2023-01-19T22:37:24.209Z,101234.38
2023-01-19T22:39:50.829Z,101234.41
2023-01-19T22:42:17.233Z,101224.41
2023-01-19T22:44:43.719Z,101227.78
2023-01-19T22:47:10.172Z,101222.75
2023-01-19T22:49:36.769Z,101224.44
2023-01-19T22:52:03.420Z,101224.44
2023-01-19T22:54:30.234Z,101226.94
2023-01-19T22:56:56.635Z,101224.41
2023-01-19T22:59:23.106Z,101228.53
2023-01-19T23:01:49.893Z,101236.13
2023-01-19T23:04:16.407Z,101240.38
2023-01-19T23:06:43.320Z,101241.25
2023-01-19T23:09:14.123Z,101232.84
2023-01-19T23:11:43.121Z,101226.16
2023-01-19T23:14:15.122Z,101234.53
2023-01-19T23:16:41.653Z,101232.00
2023-01-19T23:19:08.236Z,101226.16
2023-01-19T23:21:34.750Z,101227.00
2023-01-19T23:24:03.515Z,101227.81
2023-01-19T23:26:30.839Z,101226.06
2023-01-19T23:29:01.670Z,101230.16
2023-01-19T23:31:29.460Z,101228.41
2023-01-19T23:33:58.006Z,101225.00
2023-01-19T23:36:26.774Z,101238.38
2023-01-19T23:38:56.099Z,101235.78
2023-01-19T23:41:23.897Z,101236.56
2023-01-19T23:43:51.092Z,101239.06
2023-01-19T23:46:18.812Z,101243.16
2023-01-19T23:48:45.934Z,101239.75
2023-01-19T23:51:15.294Z,101247.34
2023-01-19T23:53:41.829Z,101238.06
2023-01-19T23:56:18.253Z,101237.22
2023-01-19T23:58:46.490Z,101249.72
